createdAt,value
2022-12-12T00:00:31.814Z,11.63
2022-12-12T00:03:01.059Z,9.60
2022-12-12T00:05:30.123Z,12.40
2022-12-12T00:07:59.159Z,11.32
2022-12-12T00:10:28.359Z,10.73
2022-12-12T00:12:57.408Z,10.15
2022-12-12T00:15:26.892Z,11.50
2022-12-12T00:17:57.387Z,9.98
2022-12-12T00:20:26.280Z,10.57
2022-12-12T00:22:55.246Z,10.00
2022-12-12T00:25:24.225Z,11.07
2022-12-12T00:27:53.181Z,10.52
2022-12-12T00:30:22.144Z,10.85
2022-12-12T00:32:51.086Z,11.38
2022-12-12T00:35:20.078Z,12.05
2022-12-12T00:37:49.381Z,10.13
2022-12-12T00:40:18.454Z,11.52
2022-12-12T00:42:47.791Z,10.63
2022-12-12T00:45:16.714Z,9.98
2022-12-12T00:47:45.682Z,11.02
2022-12-12T00:50:14.643Z,10.40
2022-12-12T00:52:43.765Z,10.55
2022-12-12T00:55:14.455Z,10.13
2022-12-12T00:57:43.765Z,10.38
2022-12-12T01:00:16.460Z,18.40
2022-12-12T01:02:45.836Z,13.75
2022-12-12T01:05:16.114Z,10.98
2022-12-12T01:07:45.427Z,11.35
2022-12-12T01:10:14.622Z,11.40
2022-12-12T01:12:43.627Z,11.13
2022-12-12T01:15:13.732Z,10.35
2022-12-12T01:17:43.621Z,8.80
2022-12-12T01:20:24.198Z,10.40
2022-12-12T01:22:53.729Z,10.57
2022-12-12T01:25:23.109Z,11.10
2022-12-12T01:27:52.465Z,11.20
2022-12-12T01:30:24.437Z,10.57
2022-12-12T01:32:53.802Z,9.65
2022-12-12T01:35:24.688Z,8.93
2022-12-12T01:37:54.136Z,10.70
2022-12-12T01:40:26.087Z,11.00
2022-12-12T01:42:56.103Z,9.65
2022-12-12T01:46:04.636Z,10.80
2022-12-12T01:48:36.398Z,10.20
2022-12-12T01:51:15.255Z,10.38
2022-12-12T01:53:45.940Z,17.30
2022-12-12T01:56:18.546Z,9.90
2022-12-12T01:58:49.742Z,10.02
2022-12-12T02:01:19.205Z,9.43
2022-12-12T02:03:50.427Z,11.00
2022-12-12T02:06:24.680Z,9.07
2022-12-12T02:08:56.881Z,10.48
2022-12-12T02:11:27.947Z,10.02
2022-12-12T02:13:57.306Z,10.13
2022-12-12T02:16:29.279Z,10.02
2022-12-12T02:19:25.762Z,9.13
2022-12-12T02:22:06.909Z,11.07
2022-12-12T02:24:56.153Z,10.55
2022-12-12T02:27:34.263Z,12.05
2022-12-12T02:30:08.920Z,11.25
2022-12-12T02:33:07.323Z,11.25
2022-12-12T02:35:52.571Z,11.95
2022-12-12T02:38:27.217Z,11.20
2022-12-12T02:41:23.794Z,9.45
2022-12-12T02:44:08.691Z,11.18
2022-12-12T02:46:59.148Z,12.57
2022-12-12T02:49:38.416Z,10.57
2022-12-12T02:52:09.616Z,11.30
2022-12-12T02:54:39.111Z,9.20
2022-12-12T02:57:25.431Z,11.85
2022-12-12T03:00:15.337Z,11.18
2022-12-12T03:03:23.393Z,11.65
2022-12-12T03:06:22.412Z,10.23
2022-12-12T03:09:09.335Z,10.55
2022-12-12T03:12:03.040Z,9.65
2022-12-12T03:14:51.219Z,10.55
2022-12-12T03:17:34.236Z,9.98
2022-12-12T03:20:35.117Z,9.55
2022-12-12T03:23:21.000Z,9.32
2022-12-12T03:26:13.270Z,9.90
2022-12-12T03:28:52.306Z,9.68
2022-12-12T03:31:26.811Z,9.75
2022-12-12T03:34:02.536Z,9.45
2022-12-12T03:36:50.748Z,9.18
2022-12-12T03:39:27.849Z,9.88
2022-12-12T03:42:06.400Z,9.70
2022-12-12T03:45:09.107Z,13.38
2022-12-12T03:47:45.231Z,11.90
2022-12-12T03:50:23.187Z,13.27
2022-12-12T03:53:00.739Z,11.68
2022-12-12T03:55:43.158Z,11.27
2022-12-12T03:58:28.738Z,11.63
2022-12-12T04:00:59.885Z,12.50
2022-12-12T04:03:46.840Z,11.70
2022-12-12T04:06:43.540Z,10.68
2022-12-12T04:09:36.971Z,12.77
2022-12-12T04:12:41.398Z,12.35
2022-12-12T04:15:41.034Z,11.70
2022-12-12T04:18:22.166Z,12.07
2022-12-12T04:21:17.566Z,12.70
2022-12-12T04:24:07.629Z,8.95
2022-12-12T04:26:56.843Z,8.40
2022-12-12T04:29:44.042Z,9.70
2022-12-12T04:32:27.476Z,8.77
2022-12-12T04:35:00.623Z,9.57
2022-12-12T04:37:37.412Z,9.32
2022-12-12T04:40:10.960Z,9.90
2022-12-12T04:42:44.950Z,10.98
2022-12-12T04:45:18.666Z,9.00
2022-12-12T04:47:50.759Z,9.32
2022-12-12T04:50:22.189Z,9.52
2022-12-12T04:52:53.897Z,8.98
2022-12-12T04:55:30.930Z,10.55
2022-12-12T04:58:00.318Z,10.20
2022-12-12T05:00:33.694Z,8.75
2022-12-12T05:03:16.432Z,8.50
2022-12-12T05:05:54.751Z,10.43
2022-12-12T05:08:29.990Z,10.73
2022-12-12T05:11:02.551Z,9.88
2022-12-12T05:13:35.214Z,10.55
2022-12-12T05:16:11.653Z,10.50
2022-12-12T05:18:40.710Z,10.15
2022-12-12T05:21:09.661Z,10.63
2022-12-12T05:23:38.580Z,9.43
2022-12-12T05:26:12.139Z,8.30
2022-12-12T05:28:41.094Z,9.55
2022-12-12T05:31:10.287Z,9.32
2022-12-12T05:33:39.256Z,9.40
2022-12-12T05:36:08.559Z,9.52
2022-12-12T05:38:37.902Z,9.77
2022-12-12T05:41:07.268Z,11.40
2022-12-12T05:43:36.474Z,9.90
2022-12-12T05:46:06.182Z,8.90
2022-12-12T05:48:35.703Z,9.60
2022-12-12T05:51:05.446Z,9.90
2022-12-12T05:53:42.046Z,9.52
2022-12-12T05:56:12.616Z,9.40
2022-12-12T05:58:42.478Z,10.38
2022-12-12T06:01:11.953Z,9.70
2022-12-12T06:03:40.913Z,9.05
2022-12-12T06:06:10.005Z,9.85
2022-12-12T06:08:39.032Z,9.60
2022-12-12T06:11:09.099Z,9.82
2022-12-12T06:13:39.206Z,9.85
2022-12-12T06:16:10.219Z,8.93
2022-12-12T06:18:39.743Z,9.20
2022-12-12T06:21:14.306Z,9.38
2022-12-12T06:23:44.255Z,10.13
2022-12-12T06:26:15.451Z,10.00
2022-12-12T06:28:45.314Z,10.10
2022-12-12T06:31:15.682Z,10.77
2022-12-12T06:33:45.513Z,9.80
2022-12-12T06:36:25.134Z,9.10
2022-12-12T06:38:59.367Z,9.38
2022-12-12T06:41:31.639Z,9.77
2022-12-12T06:44:00.703Z,9.85
2022-12-12T06:46:31.800Z,8.52
2022-12-12T06:49:01.674Z,8.30
2022-12-12T06:51:37.496Z,9.60
2022-12-12T06:54:07.111Z,10.05
2022-12-12T06:56:36.062Z,8.05
2022-12-12T06:59:05.009Z,9.52
2022-12-12T07:01:34.620Z,10.25
2022-12-12T07:04:04.063Z,9.80
2022-12-12T07:06:33.433Z,8.77
2022-12-12T07:09:04.104Z,10.23
2022-12-12T07:11:33.064Z,9.02
2022-12-12T07:14:04.888Z,10.13
2022-12-12T07:16:33.837Z,9.23
2022-12-12T07:19:02.807Z,9.57
2022-12-12T07:21:31.748Z,10.50
2022-12-12T07:24:00.845Z,9.13
2022-12-12T07:26:30.015Z,8.82
2022-12-12T07:28:58.993Z,9.13
2022-12-12T07:31:27.997Z,10.25
2022-12-12T07:33:57.064Z,10.18
2022-12-12T07:36:26.474Z,11.38
2022-12-12T07:38:55.402Z,11.48
2022-12-12T07:41:25.767Z,8.60
2022-12-12T07:43:54.841Z,7.97
2022-12-12T07:46:26.353Z,8.45
2022-12-12T07:48:56.105Z,8.27
2022-12-12T07:51:25.272Z,8.70
2022-12-12T07:53:54.183Z,9.25
2022-12-12T07:56:23.149Z,9.63
2022-12-12T07:58:52.479Z,9.13
2022-12-12T08:01:24.998Z,8.48
2022-12-12T08:03:55.570Z,8.63
2022-12-12T08:06:25.475Z,9.73
2022-12-12T08:08:55.147Z,8.50
2022-12-12T08:11:26.919Z,9.23
2022-12-12T08:13:56.674Z,8.98
2022-12-12T08:16:28.601Z,8.40
2022-12-12T08:18:59.758Z,9.18
2022-12-12T08:21:29.899Z,8.10
2022-12-12T08:24:01.033Z,9.65
2022-12-12T08:26:30.592Z,11.15
2022-12-12T08:29:00.239Z,9.18
2022-12-12T08:31:29.899Z,10.30
2022-12-12T08:34:00.734Z,10.23
2022-12-12T08:36:32.829Z,10.85
2022-12-12T08:39:08.244Z,9.85
2022-12-12T08:41:40.586Z,9.63
2022-12-12T08:44:11.686Z,9.70
2022-12-12T08:46:42.534Z,10.95
2022-12-12T08:49:12.369Z,10.73
2022-12-12T08:51:42.815Z,9.43
2022-12-12T08:54:15.945Z,10.68
2022-12-12T08:56:45.392Z,9.80
2022-12-12T08:59:14.492Z,9.35
2022-12-12T09:01:44.122Z,8.43
2022-12-12T09:04:13.243Z,9.32
2022-12-12T09:06:42.172Z,9.70
2022-12-12T09:09:11.180Z,8.50
2022-12-12T09:11:40.406Z,9.95
2022-12-12T09:14:09.371Z,8.63
2022-12-12T09:16:38.282Z,9.80
2022-12-12T09:19:07.586Z,9.23
2022-12-12T09:21:36.492Z,11.48
2022-12-12T09:24:05.806Z,7.97
2022-12-12T09:26:34.840Z,8.88
2022-12-12T09:29:03.847Z,8.60
2022-12-12T09:31:32.978Z,9.73
2022-12-12T09:34:02.122Z,8.23
2022-12-12T09:36:31.079Z,8.13
2022-12-12T09:39:00.016Z,8.63
2022-12-12T09:41:31.797Z,8.88
2022-12-12T09:44:19.712Z,9.15
2022-12-12T09:46:58.466Z,9.00
2022-12-12T09:49:56.501Z,8.57
2022-12-12T09:52:37.620Z,9.10
2022-12-12T09:55:46.147Z,9.48
2022-12-12T09:58:30.366Z,10.63
2022-12-12T10:03:51.532Z,8.48
2022-12-12T10:06:37.018Z,9.63
2022-12-12T10:09:34.124Z,9.30
2022-12-12T10:12:08.622Z,10.52
2022-12-12T10:15:06.188Z,9.73
2022-12-12T10:17:46.101Z,8.88
2022-12-12T10:20:15.429Z,10.25
2022-12-12T10:23:08.609Z,10.38
2022-12-12T10:25:46.734Z,9.82
2022-12-12T10:28:17.456Z,11.07
2022-12-12T10:31:10.816Z,10.75
2022-12-12T10:33:58.291Z,11.18
2022-12-12T10:37:00.042Z,10.07
2022-12-12T10:39:47.077Z,14.10
2022-12-12T10:42:36.857Z,14.02
2022-12-12T10:45:39.554Z,9.90
2022-12-12T10:48:08.849Z,12.40
2022-12-12T10:51:00.929Z,11.45
2022-12-12T10:53:31.296Z,10.18
2022-12-12T10:56:13.201Z,9.95
2022-12-12T10:58:44.954Z,11.05
2022-12-12T11:02:08.509Z,9.98
2022-12-12T11:04:26.500Z,11.23
2022-12-12T11:06:57.612Z,10.38
2022-12-12T11:09:29.639Z,9.88
2022-12-12T11:12:12.221Z,11.27
2022-12-12T11:14:47.519Z,9.80
2022-12-12T11:17:22.531Z,11.77
2022-12-12T11:19:53.578Z,11.40
2022-12-12T11:22:22.798Z,11.93
2022-12-12T11:24:52.951Z,10.60
2022-12-12T11:27:30.640Z,11.43
2022-12-12T11:30:30.603Z,10.52
2022-12-12T11:32:59.957Z,12.02
2022-12-12T11:35:31.774Z,12.80
2022-12-12T11:38:08.190Z,11.65
2022-12-12T11:40:39.376Z,12.52
2022-12-12T11:43:20.859Z,14.23
2022-12-12T11:46:15.754Z,14.55
2022-12-12T11:48:53.913Z,14.10
2022-12-12T11:51:45.002Z,13.77
2022-12-12T11:54:24.332Z,13.25
2022-12-12T11:56:59.963Z,12.20
2022-12-12T11:59:47.135Z,12.80
2022-12-12T12:03:18.355Z,15.35
2022-12-12T12:05:53.629Z,14.80
2022-12-12T12:08:50.470Z,14.13
2022-12-12T12:11:37.832Z,15.32
2022-12-12T12:14:36.555Z,14.60
2022-12-12T12:17:08.490Z,11.95
2022-12-12T12:19:58.752Z,11.57
2022-12-12T12:22:30.871Z,11.95
2022-12-12T12:25:36.679Z,11.35
2022-12-12T12:28:47.025Z,9.98
2022-12-12T12:31:30.777Z,10.88
2022-12-12T12:34:25.486Z,10.93
2022-12-12T12:36:57.452Z,10.07
2022-12-12T12:39:47.931Z,10.90
2022-12-12T12:42:26.203Z,11.57
2022-12-12T12:45:17.954Z,11.73
2022-12-12T12:47:53.498Z,11.75
2022-12-12T12:50:38.610Z,11.32
2022-12-12T12:53:25.625Z,12.18
2022-12-12T12:56:00.138Z,11.65
2022-12-12T12:58:37.297Z,13.00
2022-12-12T13:01:28.386Z,11.55
2022-12-12T13:04:04.984Z,11.85
2022-12-12T13:07:02.745Z,11.65
2022-12-12T13:09:37.166Z,12.57
2022-12-12T13:12:18.038Z,12.13
2022-12-12T13:14:56.386Z,17.98
2022-12-12T13:17:53.298Z,13.27
2022-12-12T13:20:26.338Z,13.98
2022-12-12T13:23:18.903Z,14.98
2022-12-12T13:26:06.453Z,16.48
2022-12-12T13:28:42.147Z,15.52
2022-12-12T13:32:00.304Z,14.13
2022-12-12T13:34:31.959Z,13.38
2022-12-12T13:37:01.538Z,13.25
2022-12-12T13:39:37.840Z,12.85
2022-12-12T13:42:09.254Z,11.77
2022-12-12T13:44:43.027Z,13.52
2022-12-12T13:47:27.621Z,11.05
2022-12-12T13:49:56.627Z,10.40
2022-12-12T13:52:32.012Z,9.55
2022-12-12T13:55:17.262Z,10.02
2022-12-12T13:58:03.759Z,9.93
2022-12-12T14:00:34.604Z,10.48
2022-12-12T14:03:11.601Z,10.02
2022-12-12T14:05:46.133Z,10.05
2022-12-12T14:08:15.584Z,11.38
2022-12-12T14:11:05.014Z,11.20
2022-12-12T14:13:41.173Z,11.07
2022-12-12T14:16:30.910Z,8.88
2022-12-12T14:19:05.292Z,9.02
2022-12-12T14:21:44.675Z,9.40
2022-12-12T14:24:34.795Z,8.93
2022-12-12T14:27:10.496Z,8.63
2022-12-12T14:29:45.252Z,9.45
2022-12-12T14:32:14.301Z,8.55
2022-12-12T14:35:10.115Z,8.15
2022-12-12T14:38:12.794Z,9.55
2022-12-12T14:40:48.457Z,8.00
2022-12-12T14:43:25.384Z,8.45
2022-12-12T14:46:02.353Z,9.45
2022-12-12T14:48:36.072Z,9.15
2022-12-12T14:51:27.517Z,9.25
2022-12-12T14:54:00.131Z,9.70
2022-12-12T14:56:37.162Z,10.30
2022-12-12T14:59:27.366Z,9.80
2022-12-12T15:02:06.789Z,10.75
2022-12-12T15:04:41.293Z,9.23
2022-12-12T15:07:31.292Z,8.93
2022-12-12T15:10:00.552Z,9.45
2022-12-12T15:12:36.897Z,9.27
2022-12-12T15:15:06.388Z,9.27
2022-12-12T15:17:43.386Z,8.07
2022-12-12T15:20:33.313Z,9.45
2022-12-12T15:23:08.400Z,8.88
2022-12-12T15:25:55.444Z,8.77
2022-12-12T15:28:26.008Z,8.93
2022-12-12T15:30:56.367Z,9.27
2022-12-12T15:33:27.419Z,8.52
2022-12-12T15:36:06.355Z,8.27
2022-12-12T15:38:35.909Z,11.20
2022-12-12T15:41:13.008Z,13.10
2022-12-12T15:43:44.236Z,14.75
2022-12-12T15:46:17.235Z,11.65
2022-12-12T15:48:48.627Z,10.95
2022-12-12T15:51:24.739Z,10.88
2022-12-12T15:53:56.478Z,10.48
2022-12-12T15:56:28.828Z,9.55
2022-12-12T15:59:17.308Z,8.90
2022-12-12T16:01:46.380Z,8.55
2022-12-12T16:04:15.272Z,9.32
2022-12-12T16:06:44.455Z,9.35
2022-12-12T16:09:13.634Z,8.82
2022-12-12T16:12:16.438Z,9.48
2022-12-12T16:14:45.434Z,9.20
2022-12-12T16:17:24.400Z,9.05
2022-12-12T16:20:03.589Z,9.63
2022-12-12T16:22:47.299Z,9.07
2022-12-12T16:25:26.063Z,8.80
2022-12-12T16:28:10.740Z,9.35
2022-12-12T16:30:42.149Z,10.20
2022-12-12T16:33:14.854Z,9.50
2022-12-12T16:35:43.813Z,8.98
2022-12-12T16:38:17.551Z,9.30
2022-12-12T16:40:48.932Z,10.05
2022-12-12T16:43:23.589Z,10.20
2022-12-12T16:45:54.846Z,9.55
2022-12-12T16:48:33.424Z,10.32
2022-12-12T16:51:16.501Z,10.77
2022-12-12T16:53:45.655Z,9.95
2022-12-12T16:56:14.936Z,10.88
2022-12-12T16:58:44.005Z,10.20
2022-12-12T17:01:14.936Z,11.00
2022-12-12T17:03:44.347Z,9.63
2022-12-12T17:06:13.387Z,10.45
2022-12-12T17:08:42.557Z,10.52
2022-12-12T17:11:12.985Z,9.75
2022-12-12T17:13:49.028Z,10.57
2022-12-12T17:16:22.722Z,11.40
2022-12-12T17:18:54.847Z,10.77
2022-12-12T17:21:23.863Z,11.05
2022-12-12T17:23:52.790Z,10.23
2022-12-12T17:26:21.715Z,9.98
2022-12-12T17:28:50.727Z,10.98
2022-12-12T17:31:19.637Z,10.25
2022-12-12T17:33:50.981Z,10.70
2022-12-12T17:36:21.032Z,11.02
2022-12-12T17:38:50.651Z,10.73
2022-12-12T17:41:19.766Z,11.10
2022-12-12T17:43:55.058Z,10.32
2022-12-12T17:46:26.156Z,10.98
2022-12-12T17:48:57.797Z,11.35
2022-12-12T17:51:26.931Z,10.88
2022-12-12T17:53:56.973Z,11.23
2022-12-12T17:56:26.997Z,11.55
2022-12-12T17:58:56.170Z,11.25
2022-12-12T18:01:30.773Z,10.55
2022-12-12T18:04:03.844Z,11.68
2022-12-12T18:06:35.768Z,12.07
2022-12-12T18:09:05.410Z,12.50
2022-12-12T18:11:36.762Z,11.95
2022-12-12T18:14:08.390Z,12.70
2022-12-12T18:16:38.035Z,13.73
2022-12-12T18:19:07.030Z,13.63
2022-12-12T18:21:59.612Z,12.50
2022-12-12T18:24:30.510Z,13.93
2022-12-12T18:27:01.278Z,15.40
2022-12-12T18:29:30.587Z,16.38
2022-12-12T18:31:59.678Z,14.70
2022-12-12T18:34:28.847Z,15.18
2022-12-12T18:36:57.825Z,13.90
2022-12-12T18:39:26.815Z,14.43
2022-12-12T18:41:55.820Z,14.95
2022-12-12T18:44:24.836Z,15.55
2022-12-12T18:46:53.815Z,15.75
2022-12-12T18:49:22.906Z,16.58
2022-12-12T18:51:52.055Z,17.15
2022-12-12T18:54:22.248Z,15.00
2022-12-12T18:56:51.457Z,16.02
2022-12-12T18:59:20.378Z,16.30
2022-12-12T19:01:49.802Z,16.15
2022-12-12T19:04:23.229Z,17.90
2022-12-12T19:06:52.844Z,16.75
2022-12-12T19:09:22.780Z,17.10
2022-12-12T19:11:55.555Z,17.88
2022-12-12T19:14:40.367Z,17.05
2022-12-12T19:17:18.412Z,17.35
2022-12-12T19:19:54.984Z,19.60
2022-12-12T19:25:13.163Z,18.27
2022-12-12T19:27:42.116Z,17.92
2022-12-12T19:30:12.637Z,19.77
2022-12-12T19:32:42.163Z,19.05
2022-12-12T19:35:11.592Z,19.05
2022-12-12T19:37:40.576Z,20.08
2022-12-12T19:40:10.341Z,20.83
2022-12-12T19:42:39.713Z,20.27
2022-12-12T19:45:09.766Z,23.23
2022-12-12T19:47:38.662Z,30.75
2022-12-12T19:50:07.946Z,29.98
2022-12-12T19:52:36.807Z,21.33
2022-12-12T19:55:05.882Z,21.02
2022-12-12T19:57:34.788Z,19.95
2022-12-12T20:00:04.674Z,19.85
2022-12-12T20:02:33.792Z,21.38
2022-12-12T20:05:02.895Z,19.58
2022-12-12T20:07:32.041Z,20.02
2022-12-12T20:10:01.322Z,18.77
2022-12-12T20:12:31.390Z,21.20
2022-12-12T20:15:00.586Z,20.90
2022-12-12T20:17:29.467Z,20.98
2022-12-12T20:19:58.405Z,20.98
2022-12-12T20:22:27.317Z,21.92
2022-12-12T20:24:56.196Z,21.00
2022-12-12T20:27:25.039Z,22.33
2022-12-12T20:29:53.914Z,21.40
2022-12-12T20:32:22.843Z,22.00
2022-12-12T20:34:52.256Z,20.85
2022-12-12T20:37:21.270Z,20.77
2022-12-12T20:39:50.466Z,21.88
2022-12-12T20:42:19.427Z,21.67
2022-12-12T20:44:50.072Z,20.60
2022-12-12T20:47:19.028Z,19.38
2022-12-12T20:49:49.293Z,22.65
2022-12-12T20:52:18.464Z,21.02
2022-12-12T20:54:47.611Z,21.70
2022-12-12T20:57:16.466Z,22.23
2022-12-12T20:59:45.444Z,21.83
2022-12-12T21:02:14.563Z,23.88
2022-12-12T21:04:43.662Z,20.02
2022-12-12T21:07:12.582Z,19.88
2022-12-12T21:09:41.570Z,21.63
2022-12-12T21:12:10.615Z,21.10
2022-12-12T21:14:39.531Z,20.73
2022-12-12T21:17:08.833Z,20.98
2022-12-12T21:19:37.685Z,22.60
2022-12-12T21:22:09.334Z,21.20
2022-12-12T21:24:38.215Z,20.08
2022-12-12T21:27:07.370Z,22.58
2022-12-12T21:29:36.547Z,20.10
2022-12-12T21:32:06.030Z,20.23
2022-12-12T21:34:35.521Z,19.80
2022-12-12T21:37:04.409Z,20.50
2022-12-12T21:39:33.466Z,21.92
2022-12-12T21:42:02.436Z,21.30
2022-12-12T21:44:31.399Z,21.85
2022-12-12T21:47:00.363Z,19.42
2022-12-12T21:49:29.631Z,21.17
2022-12-12T21:52:07.495Z,22.13
2022-12-12T21:54:36.365Z,21.23
2022-12-12T21:57:05.574Z,20.80
2022-12-12T21:59:38.405Z,22.20
2022-12-12T22:02:08.270Z,33.75
2022-12-12T22:04:37.196Z,31.60
2022-12-12T22:07:06.229Z,28.15
2022-12-12T22:09:35.103Z,30.50
2022-12-12T22:12:04.669Z,31.73
2022-12-12T22:14:38.041Z,20.42
2022-12-12T22:17:07.566Z,20.02
2022-12-12T22:19:36.575Z,21.80
2022-12-12T22:22:05.637Z,21.50
2022-12-12T22:24:34.567Z,20.80
2022-12-12T22:27:04.205Z,22.52
2022-12-12T22:29:33.137Z,23.13
2022-12-12T22:32:02.589Z,22.00
2022-12-12T22:34:31.530Z,22.92
2022-12-12T22:37:00.531Z,21.50
2022-12-12T22:39:30.336Z,24.05
2022-12-12T22:42:00.380Z,25.15
2022-12-12T22:44:29.429Z,26.98
2022-12-12T22:46:58.427Z,27.70
2022-12-12T22:49:28.797Z,25.90
2022-12-12T22:51:59.730Z,28.83
2022-12-12T22:54:29.151Z,28.30
2022-12-12T22:56:58.301Z,26.83
2022-12-12T22:59:27.610Z,25.05
2022-12-12T23:01:56.595Z,25.13
2022-12-12T23:04:25.487Z,27.08
2022-12-12T23:06:54.459Z,24.70
2022-12-12T23:09:27.158Z,22.85
2022-12-12T23:11:57.142Z,23.92
2022-12-12T23:14:28.020Z,23.50
2022-12-12T23:16:57.238Z,24.58
2022-12-12T23:19:27.300Z,25.48
2022-12-12T23:21:56.172Z,23.17
2022-12-12T23:24:25.165Z,24.73
2022-12-12T23:26:54.351Z,24.25
2022-12-12T23:29:23.267Z,27.80
2022-12-12T23:31:52.465Z,25.67
2022-12-12T23:34:25.380Z,27.00
2022-12-12T23:36:55.788Z,23.35
2022-12-12T23:39:28.268Z,23.40
2022-12-12T23:41:57.435Z,24.75
2022-12-12T23:44:26.869Z,24.15
2022-12-12T23:46:55.876Z,24.15
2022-12-12T23:49:26.980Z,23.27
2022-12-12T23:51:58.312Z,24.92
2022-12-12T23:54:33.077Z,27.52
2022-12-12T23:57:02.934Z,34.97
2022-12-12T23:59:32.367Z,27.08
